sensor_id;sensor_type;location;lat;lon;timestamp;temperature;humidity
26326;DHT22;14032;52.510;7.342;2023-04-03T00:02:15;3.30;99.90
26326;DHT22;14032;52.510;7.342;2023-04-03T00:04:40;3.30;99.90
26326;DHT22;14032;52.510;7.342;2023-04-03T00:07:06;3.20;99.90
26326;DHT22;14032;52.510;7.342;2023-04-03T00:09:31;3.20;99.90
26326;DHT22;14032;52.510;7.342;2023-04-03T00:11:57;3.10;99.90
26326;DHT22;14032;52.510;7.342;2023-04-03T00:14:22;3.10;99.90
26326;DHT22;14032;52.510;7.342;2023-04-03T00:16:48;3.10;99.90
26326;DHT22;14032;52.510;7.342;2023-04-03T00:19:13;3.10;99.90
26326;DHT22;14032;52.510;7.342;2023-04-03T00:21:38;3.00;99.90
26326;DHT22;14032;52.510;7.342;2023-04-03T00:24:05;3.00;99.90
26326;DHT22;14032;52.510;7.342;2023-04-03T00:26:31;3.00;99.90
26326;DHT22;14032;52.510;7.342;2023-04-03T00:28:56;3.00;99.90
26326;DHT22;14032;52.510;7.342;2023-04-03T00:31:22;3.00;99.90
26326;DHT22;14032;52.510;7.342;2023-04-03T00:33:47;2.90;99.90
26326;DHT22;14032;52.510;7.342;2023-04-03T00:36:13;3.00;99.90
26326;DHT22;14032;52.510;7.342;2023-04-03T00:38:39;2.90;99.90
26326;DHT22;14032;52.510;7.342;2023-04-03T00:41:04;2.90;99.90
26326;DHT22;14032;52.510;7.342;2023-04-03T00:43:30;2.80;99.90
26326;DHT22;14032;52.510;7.342;2023-04-03T00:45:56;2.80;99.90
26326;DHT22;14032;52.510;7.342;2023-04-03T00:48:24;2.80;99.90
26326;DHT22;14032;52.510;7.342;2023-04-03T00:50:51;2.80;99.90
26326;DHT22;14032;52.510;7.342;2023-04-03T00:53:18;2.80;99.90
26326;DHT22;14032;52.510;7.342;2023-04-03T00:55:44;2.70;99.90
26326;DHT22;14032;52.510;7.342;2023-04-03T00:58:11;2.70;99.90
26326;DHT22;14032;52.510;7.342;2023-04-03T01:00:38;2.70;99.90
26326;DHT22;14032;52.510;7.342;2023-04-03T01:03:05;2.70;99.90
26326;DHT22;14032;52.510;7.342;2023-04-03T01:05:31;2.60;99.90
26326;DHT22;14032;52.510;7.342;2023-04-03T01:07:56;2.60;99.90
26326;DHT22;14032;52.510;7.342;2023-04-03T01:10:23;2.60;99.90
26326;DHT22;14032;52.510;7.342;2023-04-03T01:12:50;2.50;99.90
26326;DHT22;14032;52.510;7.342;2023-04-03T01:15:18;2.50;99.90
26326;DHT22;14032;52.510;7.342;2023-04-03T01:17:51;2.50;99.90
26326;DHT22;14032;52.510;7.342;2023-04-03T01:25:23;2.40;99.90
26326;DHT22;14032;52.510;7.342;2023-04-03T01:27:49;2.40;99.90
26326;DHT22;14032;52.510;7.342;2023-04-03T01:30:17;2.40;99.90
26326;DHT22;14032;52.510;7.342;2023-04-03T01:32:43;2.40;99.90
26326;DHT22;14032;52.510;7.342;2023-04-03T01:35:08;2.30;99.90
26326;DHT22;14032;52.510;7.342;2023-04-03T01:37:34;2.30;99.90
26326;DHT22;14032;52.510;7.342;2023-04-03T01:39:59;2.30;99.90
26326;DHT22;14032;52.510;7.342;2023-04-03T01:42:25;2.30;99.90
26326;DHT22;14032;52.510;7.342;2023-04-03T01:44:50;2.20;99.90
26326;DHT22;14032;52.510;7.342;2023-04-03T01:47:16;2.30;99.90
26326;DHT22;14032;52.510;7.342;2023-04-03T01:49:41;2.30;99.90
26326;DHT22;14032;52.510;7.342;2023-04-03T01:52:07;2.20;99.90
26326;DHT22;14032;52.510;7.342;2023-04-03T01:54:32;2.20;99.90
26326;DHT22;14032;52.510;7.342;2023-04-03T01:56:58;2.20;99.90
26326;DHT22;14032;52.510;7.342;2023-04-03T01:59:23;2.20;99.90
26326;DHT22;14032;52.510;7.342;2023-04-03T02:01:49;2.20;99.90
26326;DHT22;14032;52.510;7.342;2023-04-03T02:04:14;2.10;99.90
26326;DHT22;14032;52.510;7.342;2023-04-03T02:06:40;2.10;99.90
26326;DHT22;14032;52.510;7.342;2023-04-03T02:09:05;2.10;99.90
26326;DHT22;14032;52.510;7.342;2023-04-03T02:11:32;2.00;99.90
26326;DHT22;14032;52.510;7.342;2023-04-03T02:13:57;2.00;99.90
26326;DHT22;14032;52.510;7.342;2023-04-03T02:16:23;2.00;99.90
26326;DHT22;14032;52.510;7.342;2023-04-03T02:18:48;2.00;99.90
26326;DHT22;14032;52.510;7.342;2023-04-03T02:21:15;2.00;99.90
26326;DHT22;14032;52.510;7.342;2023-04-03T02:23:40;1.90;99.90
26326;DHT22;14032;52.510;7.342;2023-04-03T02:26:10;1.90;99.90
26326;DHT22;14032;52.510;7.342;2023-04-03T02:28:36;1.90;99.90
26326;DHT22;14032;52.510;7.342;2023-04-03T02:31:02;1.90;99.90
26326;DHT22;14032;52.510;7.342;2023-04-03T02:33:27;1.80;99.90
26326;DHT22;14032;52.510;7.342;2023-04-03T02:35:54;1.80;99.90
26326;DHT22;14032;52.510;7.342;2023-04-03T02:38:19;1.80;99.90
26326;DHT22;14032;52.510;7.342;2023-04-03T02:40:45;1.80;99.90
26326;DHT22;14032;52.510;7.342;2023-04-03T02:43:10;1.80;99.90
26326;DHT22;14032;52.510;7.342;2023-04-03T02:45:36;1.80;99.90
26326;DHT22;14032;52.510;7.342;2023-04-03T02:48:01;1.70;99.90
26326;DHT22;14032;52.510;7.342;2023-04-03T02:50:27;1.70;99.90
26326;DHT22;14032;52.510;7.342;2023-04-03T02:52:52;1.70;99.90
26326;DHT22;14032;52.510;7.342;2023-04-03T02:55:18;1.70;99.90
26326;DHT22;14032;52.510;7.342;2023-04-03T02:57:43;1.70;99.90
26326;DHT22;14032;52.510;7.342;2023-04-03T03:00:09;1.60;99.90
26326;DHT22;14032;52.510;7.342;2023-04-03T03:02:35;1.60;99.90
26326;DHT22;14032;52.510;7.342;2023-04-03T03:05:00;1.60;99.90
26326;DHT22;14032;52.510;7.342;2023-04-03T03:07:26;1.60;99.90
26326;DHT22;14032;52.510;7.342;2023-04-03T03:09:51;1.50;99.90
26326;DHT22;14032;52.510;7.342;2023-04-03T03:12:17;1.50;99.90
26326;DHT22;14032;52.510;7.342;2023-04-03T03:14:47;1.50;99.90
26326;DHT22;14032;52.510;7.342;2023-04-03T03:17:12;1.40;99.90
26326;DHT22;14032;52.510;7.342;2023-04-03T03:19:38;1.40;99.90
26326;DHT22;14032;52.510;7.342;2023-04-03T03:22:03;1.40;99.90
26326;DHT22;14032;52.510;7.342;2023-04-03T03:24:29;1.40;99.90
26326;DHT22;14032;52.510;7.342;2023-04-03T03:26:55;1.30;99.90
26326;DHT22;14032;52.510;7.342;2023-04-03T03:29:20;1.40;99.90
26326;DHT22;14032;52.510;7.342;2023-04-03T03:31:46;1.30;99.90
26326;DHT22;14032;52.510;7.342;2023-04-03T03:34:11;1.30;99.90
26326;DHT22;14032;52.510;7.342;2023-04-03T03:36:37;1.30;99.90
26326;DHT22;14032;52.510;7.342;2023-04-03T03:39:02;1.20;99.90
26326;DHT22;14032;52.510;7.342;2023-04-03T03:41:28;1.20;99.90
26326;DHT22;14032;52.510;7.342;2023-04-03T03:43:53;1.20;99.90
26326;DHT22;14032;52.510;7.342;2023-04-03T03:46:19;1.20;99.90
26326;DHT22;14032;52.510;7.342;2023-04-03T03:48:44;1.20;99.90
26326;DHT22;14032;52.510;7.342;2023-04-03T03:51:10;1.10;99.90
26326;DHT22;14032;52.510;7.342;2023-04-03T03:53:35;1.10;99.90
26326;DHT22;14032;52.510;7.342;2023-04-03T03:56:01;1.10;99.90
26326;DHT22;14032;52.510;7.342;2023-04-03T03:58:26;1.10;99.90
26326;DHT22;14032;52.510;7.342;2023-04-03T04:00:52;1.10;99.90
26326;DHT22;14032;52.510;7.342;2023-04-03T04:03:17;1.10;99.90
26326;DHT22;14032;52.510;7.342;2023-04-03T04:05:43;1.10;99.90
26326;DHT22;14032;52.510;7.342;2023-04-03T04:08:08;1.10;99.90
26326;DHT22;14032;52.510;7.342;2023-04-03T04:10:34;1.10;99.90
26326;DHT22;14032;52.510;7.342;2023-04-03T04:13:00;1.00;99.90
26326;DHT22;14032;52.510;7.342;2023-04-03T04:15:26;1.00;99.90
26326;DHT22;14032;52.510;7.342;2023-04-03T04:17:52;1.00;99.90
26326;DHT22;14032;52.510;7.342;2023-04-03T04:20:18;1.00;99.90
26326;DHT22;14032;52.510;7.342;2023-04-03T04:22:44;1.00;99.90
26326;DHT22;14032;52.510;7.342;2023-04-03T04:25:10;1.00;99.90
26326;DHT22;14032;52.510;7.342;2023-04-03T04:27:35;1.00;99.90
26326;DHT22;14032;52.510;7.342;2023-04-03T04:30:02;1.00;99.90
26326;DHT22;14032;52.510;7.342;2023-04-03T04:32:28;0.90;99.90
26326;DHT22;14032;52.510;7.342;2023-04-03T04:34:54;0.90;99.90
26326;DHT22;14032;52.510;7.342;2023-04-03T04:37:19;0.90;99.90
26326;DHT22;14032;52.510;7.342;2023-04-03T04:39:45;0.90;99.90
26326;DHT22;14032;52.510;7.342;2023-04-03T04:42:10;0.90;99.90
26326;DHT22;14032;52.510;7.342;2023-04-03T04:44:38;0.90;99.90
26326;DHT22;14032;52.510;7.342;2023-04-03T04:47:03;0.80;99.90
26326;DHT22;14032;52.510;7.342;2023-04-03T04:49:29;0.90;99.90
26326;DHT22;14032;52.510;7.342;2023-04-03T04:51:55;0.90;99.90
26326;DHT22;14032;52.510;7.342;2023-04-03T04:54:20;0.90;99.90
26326;DHT22;14032;52.510;7.342;2023-04-03T04:56:46;0.80;99.90
26326;DHT22;14032;52.510;7.342;2023-04-03T04:59:11;0.80;99.90
26326;DHT22;14032;52.510;7.342;2023-04-03T05:01:37;0.80;99.90
26326;DHT22;14032;52.510;7.342;2023-04-03T05:04:03;0.80;99.90
26326;DHT22;14032;52.510;7.342;2023-04-03T05:06:29;0.80;99.90
26326;DHT22;14032;52.510;7.342;2023-04-03T05:08:57;0.70;99.90
26326;DHT22;14032;52.510;7.342;2023-04-03T05:11:23;0.70;99.90
26326;DHT22;14032;52.510;7.342;2023-04-03T05:13:48;0.70;99.90
26326;DHT22;14032;52.510;7.342;2023-04-03T05:16:14;0.70;99.90
26326;DHT22;14032;52.510;7.342;2023-04-03T05:18:40;0.70;99.90
26326;DHT22;14032;52.510;7.342;2023-04-03T05:21:05;0.70;99.90
26326;DHT22;14032;52.510;7.342;2023-04-03T05:23:30;0.70;99.90
26326;DHT22;14032;52.510;7.342;2023-04-03T05:25:56;0.70;99.90
26326;DHT22;14032;52.510;7.342;2023-04-03T05:28:21;0.70;99.90
26326;DHT22;14032;52.510;7.342;2023-04-03T05:30:54;0.80;99.90
26326;DHT22;14032;52.510;7.342;2023-04-03T05:33:20;0.80;99.90
26326;DHT22;14032;52.510;7.342;2023-04-03T05:35:46;0.90;99.90
26326;DHT22;14032;52.510;7.342;2023-04-03T05:38:11;0.90;99.90
26326;DHT22;14032;52.510;7.342;2023-04-03T05:40:37;0.90;99.90
26326;DHT22;14032;52.510;7.342;2023-04-03T05:43:02;0.90;99.90
26326;DHT22;14032;52.510;7.342;2023-04-03T05:45:28;1.00;99.90
26326;DHT22;14032;52.510;7.342;2023-04-03T05:47:53;1.00;99.90
26326;DHT22;14032;52.510;7.342;2023-04-03T05:50:19;1.10;99.90
26326;DHT22;14032;52.510;7.342;2023-04-03T05:52:45;1.20;99.90
26326;DHT22;14032;52.510;7.342;2023-04-03T05:55:12;1.20;99.90
26326;DHT22;14032;52.510;7.342;2023-04-03T05:57:37;1.20;99.90
26326;DHT22;14032;52.510;7.342;2023-04-03T06:00:06;1.30;99.90
26326;DHT22;14032;52.510;7.342;2023-04-03T06:02:32;1.40;99.90
26326;DHT22;14032;52.510;7.342;2023-04-03T06:04:59;1.40;99.90
26326;DHT22;14032;52.510;7.342;2023-04-03T06:07:26;1.50;99.90
26326;DHT22;14032;52.510;7.342;2023-04-03T06:09:53;1.50;99.90
26326;DHT22;14032;52.510;7.342;2023-04-03T06:12:19;1.60;99.90
26326;DHT22;14032;52.510;7.342;2023-04-03T06:14:45;1.70;99.90
26326;DHT22;14032;52.510;7.342;2023-04-03T06:17:10;1.70;99.90
26326;DHT22;14032;52.510;7.342;2023-04-03T06:19:37;1.80;99.90
26326;DHT22;14032;52.510;7.342;2023-04-03T06:22:02;1.90;99.90
26326;DHT22;14032;52.510;7.342;2023-04-03T06:24:28;2.00;99.90
26326;DHT22;14032;52.510;7.342;2023-04-03T06:26:54;2.10;99.90
26326;DHT22;14032;52.510;7.342;2023-04-03T06:29:21;2.20;99.90
26326;DHT22;14032;52.510;7.342;2023-04-03T06:31:47;2.30;99.90
26326;DHT22;14032;52.510;7.342;2023-04-03T06:34:12;2.40;99.90
26326;DHT22;14032;52.510;7.342;2023-04-03T06:36:38;2.50;99.90
26326;DHT22;14032;52.510;7.342;2023-04-03T06:39:04;2.60;99.90
26326;DHT22;14032;52.510;7.342;2023-04-03T06:41:30;2.80;99.90
26326;DHT22;14032;52.510;7.342;2023-04-03T06:43:55;2.80;99.90
26326;DHT22;14032;52.510;7.342;2023-04-03T06:46:22;2.90;99.90
26326;DHT22;14032;52.510;7.342;2023-04-03T06:48:48;3.00;99.90
26326;DHT22;14032;52.510;7.342;2023-04-03T06:51:21;3.10;99.90
26326;DHT22;14032;52.510;7.342;2023-04-03T06:53:51;3.20;99.90
26326;DHT22;14032;52.510;7.342;2023-04-03T06:56:17;3.20;99.90
26326;DHT22;14032;52.510;7.342;2023-04-03T06:58:43;3.30;99.90
26326;DHT22;14032;52.510;7.342;2023-04-03T07:01:10;3.50;99.90
26326;DHT22;14032;52.510;7.342;2023-04-03T07:03:36;3.50;99.90
26326;DHT22;14032;52.510;7.342;2023-04-03T07:06:02;3.60;99.90
26326;DHT22;14032;52.510;7.342;2023-04-03T07:08:28;3.70;99.90
26326;DHT22;14032;52.510;7.342;2023-04-03T07:10:54;3.70;99.90
26326;DHT22;14032;52.510;7.342;2023-04-03T07:13:19;3.80;99.90
26326;DHT22;14032;52.510;7.342;2023-04-03T07:15:45;3.90;99.90
26326;DHT22;14032;52.510;7.342;2023-04-03T07:18:11;4.00;99.90
26326;DHT22;14032;52.510;7.342;2023-04-03T07:20:36;4.00;99.90
26326;DHT22;14032;52.510;7.342;2023-04-03T07:23:01;4.10;99.90
26326;DHT22;14032;52.510;7.342;2023-04-03T07:25:27;4.20;99.90
26326;DHT22;14032;52.510;7.342;2023-04-03T07:30:28;4.40;99.90
26326;DHT22;14032;52.510;7.342;2023-04-03T07:32:54;4.50;99.90
26326;DHT22;14032;52.510;7.342;2023-04-03T07:35:20;4.60;99.90
26326;DHT22;14032;52.510;7.342;2023-04-03T07:37:45;4.80;99.90
26326;DHT22;14032;52.510;7.342;2023-04-03T07:40:11;4.80;99.90
26326;DHT22;14032;52.510;7.342;2023-04-03T07:42:36;4.90;99.90
26326;DHT22;14032;52.510;7.342;2023-04-03T07:45:02;4.90;99.90
26326;DHT22;14032;52.510;7.342;2023-04-03T07:47:28;5.00;99.90
26326;DHT22;14032;52.510;7.342;2023-04-03T07:49:54;5.00;99.90
26326;DHT22;14032;52.510;7.342;2023-04-03T07:52:19;5.10;99.90
26326;DHT22;14032;52.510;7.342;2023-04-03T07:54:45;5.10;99.90
26326;DHT22;14032;52.510;7.342;2023-04-03T07:57:10;5.00;99.90
26326;DHT22;14032;52.510;7.342;2023-04-03T07:59:36;5.10;99.90
26326;DHT22;14032;52.510;7.342;2023-04-03T08:02:02;5.20;99.90
26326;DHT22;14032;52.510;7.342;2023-04-03T08:04:30;5.20;99.90
26326;DHT22;14032;52.510;7.342;2023-04-03T08:06:55;5.20;99.90
26326;DHT22;14032;52.510;7.342;2023-04-03T08:09:21;5.30;99.90
26326;DHT22;14032;52.510;7.342;2023-04-03T08:11:47;5.30;99.90
26326;DHT22;14032;52.510;7.342;2023-04-03T08:14:13;5.40;99.90
26326;DHT22;14032;52.510;7.342;2023-04-03T08:16:42;5.40;99.90
26326;DHT22;14032;52.510;7.342;2023-04-03T08:19:08;5.40;99.90
26326;DHT22;14032;52.510;7.342;2023-04-03T08:21:34;5.40;99.90
26326;DHT22;14032;52.510;7.342;2023-04-03T08:23:59;5.50;99.90
26326;DHT22;14032;52.510;7.342;2023-04-03T08:26:25;5.50;99.90
26326;DHT22;14032;52.510;7.342;2023-04-03T08:28:52;5.50;99.90
26326;DHT22;14032;52.510;7.342;2023-04-03T08:31:18;5.60;99.90
26326;DHT22;14032;52.510;7.342;2023-04-03T08:33:45;5.60;99.90
26326;DHT22;14032;52.510;7.342;2023-04-03T08:36:27;5.70;99.90
26326;DHT22;14032;52.510;7.342;2023-04-03T08:38:53;5.70;99.90
26326;DHT22;14032;52.510;7.342;2023-04-03T08:41:52;5.80;99.90
26326;DHT22;14032;52.510;7.342;2023-04-03T08:49:37;5.80;99.90
26326;DHT22;14032;52.510;7.342;2023-04-03T08:52:09;5.80;99.90
26326;DHT22;14032;52.510;7.342;2023-04-03T08:54:50;5.90;99.90
26326;DHT22;14032;52.510;7.342;2023-04-03T08:57:17;6.00;99.90
26326;DHT22;14032;52.510;7.342;2023-04-03T08:59:44;6.10;99.90
26326;DHT22;14032;52.510;7.342;2023-04-03T09:02:23;6.20;99.90
26326;DHT22;14032;52.510;7.342;2023-04-03T09:04:50;6.20;98.40
26326;DHT22;14032;52.510;7.342;2023-04-03T09:07:19;6.20;98.50
26326;DHT22;14032;52.510;7.342;2023-04-03T09:09:47;6.30;97.80
26326;DHT22;14032;52.510;7.342;2023-04-03T09:15:00;6.40;96.40
26326;DHT22;14032;52.510;7.342;2023-04-03T09:20:02;6.50;96.60
26326;DHT22;14032;52.510;7.342;2023-04-03T09:22:33;6.70;97.20
26326;DHT22;14032;52.510;7.342;2023-04-03T09:25:11;6.80;96.80
26326;DHT22;14032;52.510;7.342;2023-04-03T09:27:38;6.90;95.80
26326;DHT22;14032;52.510;7.342;2023-04-03T09:30:03;7.00;95.20
26326;DHT22;14032;52.510;7.342;2023-04-03T09:32:30;7.00;95.00
26326;DHT22;14032;52.510;7.342;2023-04-03T09:34:57;7.10;94.70
26326;DHT22;14032;52.510;7.342;2023-04-03T09:40:02;7.20;94.70
26326;DHT22;14032;52.510;7.342;2023-04-03T09:42:29;7.30;94.30
26326;DHT22;14032;52.510;7.342;2023-04-03T09:44:59;7.40;93.70
26326;DHT22;14032;52.510;7.342;2023-04-03T09:47:26;7.40;94.30
26326;DHT22;14032;52.510;7.342;2023-04-03T09:52:46;7.60;91.90
26326;DHT22;14032;52.510;7.342;2023-04-03T09:55:18;7.60;91.30
26326;DHT22;14032;52.510;7.342;2023-04-03T09:57:45;7.50;91.40
26326;DHT22;14032;52.510;7.342;2023-04-03T10:00:21;7.50;91.50
26326;DHT22;14032;52.510;7.342;2023-04-03T10:02:49;7.50;91.70
26326;DHT22;14032;52.510;7.342;2023-04-03T10:10:38;7.80;92.80
26326;DHT22;14032;52.510;7.342;2023-04-03T10:13:11;7.90;92.20
26326;DHT22;14032;52.510;7.342;2023-04-03T10:15:41;7.90;92.90
26326;DHT22;14032;52.510;7.342;2023-04-03T10:18:26;8.10;93.40
26326;DHT22;14032;52.510;7.342;2023-04-03T10:20:53;8.20;93.00
26326;DHT22;14032;52.510;7.342;2023-04-03T10:28:21;8.30;92.80
26326;DHT22;14032;52.510;7.342;2023-04-03T10:40:57;8.20;90.80
26326;DHT22;14032;52.510;7.342;2023-04-03T10:43:29;8.20;90.40
26326;DHT22;14032;52.510;7.342;2023-04-03T10:46:10;8.20;91.30
26326;DHT22;14032;52.510;7.342;2023-04-03T10:51:12;8.30;91.70
26326;DHT22;14032;52.510;7.342;2023-04-03T10:53:44;8.40;93.30
26326;DHT22;14032;52.510;7.342;2023-04-03T10:58:48;8.60;92.60
26326;DHT22;14032;52.510;7.342;2023-04-03T11:01:16;8.60;92.00
26326;DHT22;14032;52.510;7.342;2023-04-03T11:03:45;8.60;92.40
26326;DHT22;14032;52.510;7.342;2023-04-03T11:06:13;8.60;93.00
26326;DHT22;14032;52.510;7.342;2023-04-03T11:08:45;8.50;93.40
26326;DHT22;14032;52.510;7.342;2023-04-03T11:11:13;8.60;93.10
26326;DHT22;14032;52.510;7.342;2023-04-03T11:13:41;8.60;93.20
26326;DHT22;14032;52.510;7.342;2023-04-03T11:16:08;8.60;93.10
26326;DHT22;14032;52.510;7.342;2023-04-03T11:18:42;8.60;92.00
26326;DHT22;14032;52.510;7.342;2023-04-03T11:21:19;8.60;93.30
26326;DHT22;14032;52.510;7.342;2023-04-03T11:23:47;8.70;93.40
26326;DHT22;14032;52.510;7.342;2023-04-03T11:26:13;8.70;94.00
26326;DHT22;14032;52.510;7.342;2023-04-03T11:28:40;8.70;93.20
26326;DHT22;14032;52.510;7.342;2023-04-03T11:33:55;8.80;92.80
26326;DHT22;14032;52.510;7.342;2023-04-03T11:36:24;8.90;93.20
26326;DHT22;14032;52.510;7.342;2023-04-03T11:38:51;9.00;92.70
26326;DHT22;14032;52.510;7.342;2023-04-03T11:41:24;9.00;92.30
26326;DHT22;14032;52.510;7.342;2023-04-03T11:43:58;8.90;93.20
26326;DHT22;14032;52.510;7.342;2023-04-03T11:46:41;9.00;92.70
26326;DHT22;14032;52.510;7.342;2023-04-03T11:49:49;8.90;92.70
26326;DHT22;14032;52.510;7.342;2023-04-03T11:51:57;8.90;93.60
26326;DHT22;14032;52.510;7.342;2023-04-03T11:54:42;9.00;93.30
26326;DHT22;14032;52.510;7.342;2023-04-03T11:57:42;9.10;93.60
26326;DHT22;14032;52.510;7.342;2023-04-03T12:01:09;9.10;93.10
26326;DHT22;14032;52.510;7.342;2023-04-03T12:03:22;8.90;93.50
26326;DHT22;14032;52.510;7.342;2023-04-03T12:05:53;8.60;93.00
26326;DHT22;14032;52.510;7.342;2023-04-03T12:16:04;8.50;92.90
26326;DHT22;14032;52.510;7.342;2023-04-03T12:18:40;8.60;92.70
26326;DHT22;14032;52.510;7.342;2023-04-03T12:21:06;8.70;92.90
26326;DHT22;14032;52.510;7.342;2023-04-03T12:23:33;8.60;92.70
26326;DHT22;14032;52.510;7.342;2023-04-03T12:26:00;8.40;92.90
26326;DHT22;14032;52.510;7.342;2023-04-03T12:28:28;8.40;93.30
26326;DHT22;14032;52.510;7.342;2023-04-03T12:30:53;8.30;93.20
26326;DHT22;14032;52.510;7.342;2023-04-03T12:33:20;8.30;92.60
26326;DHT22;14032;52.510;7.342;2023-04-03T12:43:42;8.40;92.50
26326;DHT22;14032;52.510;7.342;2023-04-03T12:46:12;8.30;92.50
26326;DHT22;14032;52.510;7.342;2023-04-03T12:51:09;8.30;93.50
26326;DHT22;14032;52.510;7.342;2023-04-03T12:53:38;8.20;92.70
26326;DHT22;14032;52.510;7.342;2023-04-03T12:58:49;8.10;93.60
26326;DHT22;14032;52.510;7.342;2023-04-03T13:01:16;8.00;93.20
26326;DHT22;14032;52.510;7.342;2023-04-03T13:03:44;8.00;93.60
26326;DHT22;14032;52.510;7.342;2023-04-03T13:06:12;7.90;93.60
26326;DHT22;14032;52.510;7.342;2023-04-03T13:08:47;7.80;93.10
26326;DHT22;14032;52.510;7.342;2023-04-03T13:11:13;7.70;92.70
26326;DHT22;14032;52.510;7.342;2023-04-03T13:13:39;7.70;93.20
26326;DHT22;14032;52.510;7.342;2023-04-03T13:16:10;7.70;93.60
26326;DHT22;14032;52.510;7.342;2023-04-03T13:18:36;7.70;92.90
26326;DHT22;14032;52.510;7.342;2023-04-03T13:21:06;7.70;92.90
26326;DHT22;14032;52.510;7.342;2023-04-03T13:23:33;7.70;91.90
26326;DHT22;14032;52.510;7.342;2023-04-03T13:26:00;7.80;93.20
26326;DHT22;14032;52.510;7.342;2023-04-03T13:28:29;7.90;93.10
26326;DHT22;14032;52.510;7.342;2023-04-03T13:33:22;8.20;93.30
26326;DHT22;14032;52.510;7.342;2023-04-03T13:35:54;8.30;93.40
26326;DHT22;14032;52.510;7.342;2023-04-03T13:38:22;8.40;93.30
26326;DHT22;14032;52.510;7.342;2023-04-03T13:40:52;8.50;92.40
26326;DHT22;14032;52.510;7.342;2023-04-03T13:43:23;8.40;92.00
26326;DHT22;14032;52.510;7.342;2023-04-03T13:45:56;8.40;92.10
26326;DHT22;14032;52.510;7.342;2023-04-03T13:48:22;8.20;92.70
26326;DHT22;14032;52.510;7.342;2023-04-03T13:53:23;8.20;93.20
26326;DHT22;14032;52.510;7.342;2023-04-03T13:58:30;8.30;92.70
26326;DHT22;14032;52.510;7.342;2023-04-03T14:01:17;8.40;92.20
26326;DHT22;14032;52.510;7.342;2023-04-03T14:04:01;8.50;92.50
26326;DHT22;14032;52.510;7.342;2023-04-03T14:06:31;8.50;91.70
26326;DHT22;14032;52.510;7.342;2023-04-03T14:08:56;8.50;92.00
26326;DHT22;14032;52.510;7.342;2023-04-03T14:11:22;8.50;92.20
26326;DHT22;14032;52.510;7.342;2023-04-03T14:13:49;8.50;91.60
26326;DHT22;14032;52.510;7.342;2023-04-03T14:16:16;8.50;92.40
26326;DHT22;14032;52.510;7.342;2023-04-03T14:18:44;8.50;91.90
26326;DHT22;14032;52.510;7.342;2023-04-03T14:21:13;8.50;92.60
26326;DHT22;14032;52.510;7.342;2023-04-03T14:23:40;8.50;92.50
26326;DHT22;14032;52.510;7.342;2023-04-03T14:28:57;8.40;93.30
26326;DHT22;14032;52.510;7.342;2023-04-03T14:31:23;8.30;91.60
26326;DHT22;14032;52.510;7.342;2023-04-03T14:33:48;8.20;92.90
26326;DHT22;14032;52.510;7.342;2023-04-03T14:36:14;8.20;92.90
26326;DHT22;14032;52.510;7.342;2023-04-03T14:38:41;8.10;92.80
26326;DHT22;14032;52.510;7.342;2023-04-03T14:41:06;8.10;92.30
26326;DHT22;14032;52.510;7.342;2023-04-03T14:43:32;8.10;92.60
26326;DHT22;14032;52.510;7.342;2023-04-03T14:45:57;8.10;92.50
26326;DHT22;14032;52.510;7.342;2023-04-03T14:48:24;8.20;92.20
26326;DHT22;14032;52.510;7.342;2023-04-03T14:50:50;8.30;92.50
26326;DHT22;14032;52.510;7.342;2023-04-03T14:53:17;8.30;91.80
26326;DHT22;14032;52.510;7.342;2023-04-03T14:55:44;8.30;92.30
26326;DHT22;14032;52.510;7.342;2023-04-03T14:58:14;8.30;91.00
26326;DHT22;14032;52.510;7.342;2023-04-03T15:00:40;8.20;92.00
26326;DHT22;14032;52.510;7.342;2023-04-03T15:03:05;8.20;91.70
26326;DHT22;14032;52.510;7.342;2023-04-03T15:05:31;8.20;92.10
26326;DHT22;14032;52.510;7.342;2023-04-03T15:07:57;8.30;92.20
26326;DHT22;14032;52.510;7.342;2023-04-03T15:10:27;8.40;92.30
26326;DHT22;14032;52.510;7.342;2023-04-03T15:12:53;8.30;92.30
26326;DHT22;14032;52.510;7.342;2023-04-03T15:15:19;8.50;92.40
26326;DHT22;14032;52.510;7.342;2023-04-03T15:17:45;8.70;90.60
26326;DHT22;14032;52.510;7.342;2023-04-03T15:20:14;8.60;91.40
26326;DHT22;14032;52.510;7.342;2023-04-03T15:22:40;8.60;92.00
26326;DHT22;14032;52.510;7.342;2023-04-03T15:25:05;8.50;92.00
26326;DHT22;14032;52.510;7.342;2023-04-03T15:27:31;8.50;91.50
26326;DHT22;14032;52.510;7.342;2023-04-03T15:29:56;8.40;92.10
26326;DHT22;14032;52.510;7.342;2023-04-03T15:32:22;8.40;91.00
26326;DHT22;14032;52.510;7.342;2023-04-03T15:34:47;8.40;90.80
26326;DHT22;14032;52.510;7.342;2023-04-03T15:37:13;8.40;91.20
26326;DHT22;14032;52.510;7.342;2023-04-03T15:39:38;8.30;91.20
26326;DHT22;14032;52.510;7.342;2023-04-03T15:42:04;8.40;91.00
26326;DHT22;14032;52.510;7.342;2023-04-03T15:44:32;8.40;91.40
26326;DHT22;14032;52.510;7.342;2023-04-03T15:46:57;8.50;91.10
26326;DHT22;14032;52.510;7.342;2023-04-03T15:49:23;8.40;91.50
26326;DHT22;14032;52.510;7.342;2023-04-03T15:51:48;8.40;91.20
26326;DHT22;14032;52.510;7.342;2023-04-03T15:54:15;8.30;91.50
26326;DHT22;14032;52.510;7.342;2023-04-03T15:56:40;8.30;91.80
26326;DHT22;14032;52.510;7.342;2023-04-03T15:59:06;8.30;91.70
26326;DHT22;14032;52.510;7.342;2023-04-03T16:01:31;8.30;91.60
26326;DHT22;14032;52.510;7.342;2023-04-03T16:03:57;8.30;91.40
26326;DHT22;14032;52.510;7.342;2023-04-03T16:06:22;8.20;91.40
26326;DHT22;14032;52.510;7.342;2023-04-03T16:08:49;8.20;91.30
26326;DHT22;14032;52.510;7.342;2023-04-03T16:11:14;8.10;91.40
26326;DHT22;14032;52.510;7.342;2023-04-03T16:13:40;8.10;91.50
26326;DHT22;14032;52.510;7.342;2023-04-03T16:16:06;8.10;91.80
26326;DHT22;14032;52.510;7.342;2023-04-03T16:18:31;8.00;92.20
26326;DHT22;14032;52.510;7.342;2023-04-03T16:20:59;8.00;91.90
26326;DHT22;14032;52.510;7.342;2023-04-03T16:23:24;8.00;92.80
26326;DHT22;14032;52.510;7.342;2023-04-03T16:25:50;8.00;92.20
26326;DHT22;14032;52.510;7.342;2023-04-03T16:28:16;8.00;92.10
26326;DHT22;14032;52.510;7.342;2023-04-03T16:30:43;8.00;92.10
26326;DHT22;14032;52.510;7.342;2023-04-03T16:33:09;8.00;92.30
26326;DHT22;14032;52.510;7.342;2023-04-03T16:35:35;8.00;92.10
26326;DHT22;14032;52.510;7.342;2023-04-03T16:38:00;8.00;91.90
26326;DHT22;14032;52.510;7.342;2023-04-03T16:40:26;7.90;92.10
26326;DHT22;14032;52.510;7.342;2023-04-03T16:42:51;7.90;92.60
26326;DHT22;14032;52.510;7.342;2023-04-03T16:45:17;7.90;92.40
26326;DHT22;14032;52.510;7.342;2023-04-03T16:47:42;7.80;92.60
26326;DHT22;14032;52.510;7.342;2023-04-03T16:50:08;7.80;92.70
26326;DHT22;14032;52.510;7.342;2023-04-03T16:52:33;7.70;92.80
26326;DHT22;14032;52.510;7.342;2023-04-03T16:54:59;7.70;92.70
26326;DHT22;14032;52.510;7.342;2023-04-03T16:57:25;7.70;92.70
26326;DHT22;14032;52.510;7.342;2023-04-03T16:59:50;7.70;92.60
26326;DHT22;14032;52.510;7.342;2023-04-03T17:02:16;7.60;92.50
26326;DHT22;14032;52.510;7.342;2023-04-03T17:04:42;7.60;92.70
26326;DHT22;14032;52.510;7.342;2023-04-03T17:07:07;7.60;92.80
26326;DHT22;14032;52.510;7.342;2023-04-03T17:09:33;7.50;92.50